Time;durP1;ratioP1;P1;durP2;ratioP2;P2;SDS_P1;SDS_P2;PMS_P1;PMS_P2;Temp;Humidity;BMP_temperature;BMP_pressure;BME280_temperature;BME280_humidity;BME280_pressure;Samples;Min_cycle;Max_cycle;Signal;HPM_P1;HPM_P2
2022/08/28 00:00:54;;;;;;;11.57;7.65;;;;;;;;;;4994992;28;20102;-81
2022/08/28 00:03:20;;;;;;;12.20;8.20;;;;;;;;;;5002055;28;20053;-86
2022/08/28 00:05:46;;;;;;;12.27;7.57;;;;;;;;;;5000838;28;20141;-76
2022/08/28 00:08:13;;;;;;;13.55;7.50;;;;;;;;;;4995676;28;20038;-72
2022/08/28 00:10:39;;;;;;;11.90;8.15;;;;;;;;;;4994555;28;20109;-84
2022/08/28 00:13:06;;;;;;;13.38;7.35;;;;;;;;;;4998353;28;20034;-79
2022/08/28 00:18:19;;;;;;;13.65;8.07;;;;;;;;;;5193430;23;20057;-86
2022/08/28 00:20:46;;;;;;;15.02;8.40;;;;;;;;;;4999526;28;20018;-85
2022/08/28 00:23:12;;;;;;;13.95;8.45;;;;;;;;;;5034355;28;20483;-82
2022/08/28 00:25:38;;;;;;;13.68;8.25;;;;;;;;;;5033867;28;20029;-84
2022/08/28 00:28:06;;;;;;;11.68;8.50;;;;;;;;;;5034003;28;20032;-85
2022/08/28 00:30:49;;;;;;;11.27;8.43;;;;;;;;;;5023528;28;20029;-85
2022/08/28 00:33:15;;;;;;;14.07;8.20;;;;;;;;;;5034034;28;20040;-86
2022/08/28 00:35:42;;;;;;;14.10;9.32;;;;;;;;;;5016269;28;20021;-76
2022/08/28 00:38:09;;;;;;;13.80;8.88;;;;;;;;;;5015525;28;20045;-85
2022/08/28 00:40:35;;;;;;;13.63;9.10;;;;;;;;;;5034630;28;20024;-79
2022/08/28 00:43:02;;;;;;;14.70;8.43;;;;;;;;;;5033581;28;20029;-87
2022/08/28 00:45:29;;;;;;;20.00;9.18;;;;;;;;;;5014542;28;20072;-85
2022/08/28 00:47:55;;;;;;;19.10;9.32;;;;;;;;;;5034055;28;20030;-76
2022/08/28 00:50:23;;;;;;;13.70;8.63;;;;;;;;;;5029729;28;20025;-84
2022/08/28 00:52:51;;;;;;;14.68;9.10;;;;;;;;;;5034213;28;20032;-84
2022/08/28 00:55:19;;;;;;;18.35;9.75;;;;;;;;;;5033167;28;20044;-84
2022/08/28 00:57:48;;;;;;;13.80;9.23;;;;;;;;;;5028599;28;20490;-84
2022/08/28 01:00:34;;;;;;;15.55;9.27;;;;;;;;;;5031405;28;20474;-83
2022/08/28 01:03:00;;;;;;;17.45;9.50;;;;;;;;;;5043446;28;20017;-87
2022/08/28 01:05:27;;;;;;;18.20;9.38;;;;;;;;;;5032775;28;20029;-85
2022/08/28 01:07:54;;;;;;;18.05;8.85;;;;;;;;;;5034804;28;20028;-86
2022/08/28 01:10:22;;;;;;;15.40;9.38;;;;;;;;;;5038983;28;20447;-84
2022/08/28 01:12:48;;;;;;;13.80;8.38;;;;;;;;;;5034566;28;20026;-84
2022/08/28 01:15:17;;;;;;;13.02;9.48;;;;;;;;;;5031230;28;20037;-88
2022/08/28 01:17:45;;;;;;;15.38;9.43;;;;;;;;;;5030210;28;20045;-87
2022/08/28 01:20:14;;;;;;;12.68;9.23;;;;;;;;;;5031168;28;20434;-86
2022/08/28 01:22:45;;;;;;;11.77;9.38;;;;;;;;;;5034560;28;20391;-88
2022/08/28 01:25:13;;;;;;;12.70;8.13;;;;;;;;;;5034337;28;20017;-85
2022/08/28 01:27:40;;;;;;;14.27;8.98;;;;;;;;;;5035907;28;20040;-88
2022/08/28 01:30:07;;;;;;;16.67;8.65;;;;;;;;;;5035963;28;20051;-87
2022/08/28 01:32:36;;;;;;;13.68;8.68;;;;;;;;;;5032988;28;20025;-88
2022/08/28 01:35:03;;;;;;;12.25;8.57;;;;;;;;;;5034886;28;20025;-89
2022/08/28 01:37:30;;;;;;;14.27;8.25;;;;;;;;;;5032674;28;20017;-88
2022/08/28 01:39:56;;;;;;;14.90;8.60;;;;;;;;;;5030741;28;20046;-86
2022/08/28 01:42:22;;;;;;;17.42;8.70;;;;;;;;;;5034080;28;20435;-88
2022/08/28 01:44:49;;;;;;;17.10;7.93;;;;;;;;;;5034075;28;20430;-87
2022/08/28 01:47:15;;;;;;;16.45;8.23;;;;;;;;;;5032305;28;20087;-79
2022/08/28 01:49:41;;;;;;;13.52;7.35;;;;;;;;;;5034406;28;20024;-89
2022/08/28 01:52:08;;;;;;;10.63;6.93;;;;;;;;;;5029213;28;20499;-77
2022/08/28 01:54:34;;;;;;;15.05;7.93;;;;;;;;;;5032837;28;20032;-85
2022/08/28 01:57:00;;;;;;;15.50;8.20;;;;;;;;;;5029134;28;20102;-86
2022/08/28 01:59:26;;;;;;;12.05;8.55;;;;;;;;;;5026193;28;20118;-86
2022/08/28 02:01:54;;;;;;;16.67;8.05;;;;;;;;;;5035186;28;20039;-88
2022/08/28 02:04:20;;;;;;;13.95;8.27;;;;;;;;;;5039738;28;20025;-87
2022/08/28 02:06:46;;;;;;;12.60;8.27;;;;;;;;;;5032680;28;20018;-86
2022/08/28 02:09:12;;;;;;;14.45;8.60;;;;;;;;;;5032278;28;20254;-89
2022/08/28 02:11:41;;;;;;;18.15;8.50;;;;;;;;;;5031268;28;20021;-87
2022/08/28 02:14:07;;;;;;;16.02;7.82;;;;;;;;;;5038014;28;20021;-79
2022/08/28 02:16:33;;;;;;;15.88;8.18;;;;;;;;;;5030904;28;20398;-81
2022/08/28 02:18:59;;;;;;;13.18;8.43;;;;;;;;;;5032335;28;20038;-85
2022/08/28 02:21:25;;;;;;;16.08;8.20;;;;;;;;;;5030303;28;20028;-87
2022/08/28 02:23:51;;;;;;;16.77;8.13;;;;;;;;;;5029643;28;20083;-89
2022/08/28 02:26:18;;;;;;;12.73;7.93;;;;;;;;;;5031965;28;20041;-87
2022/08/28 02:28:44;;;;;;;13.20;8.23;;;;;;;;;;5031070;28;20021;-84
2022/08/28 02:31:10;;;;;;;15.32;8.23;;;;;;;;;;5033723;28;20026;-88
2022/08/28 02:33:42;;;;;;;12.70;8.48;;;;;;;;;;5028913;28;20032;-87
2022/08/28 02:36:09;;;;;;;12.65;8.35;;;;;;;;;;5039074;28;20029;-88
2022/08/28 02:38:38;;;;;;;17.13;9.40;;;;;;;;;;5039332;28;20033;-88
2022/08/28 02:41:05;;;;;;;15.75;8.65;;;;;;;;;;5036102;28;20092;-87
2022/08/28 02:43:31;;;;;;;13.60;9.68;;;;;;;;;;5031918;28;20072;-76
2022/08/28 02:45:57;;;;;;;21.05;9.98;;;;;;;;;;5039856;28;20040;-88
2022/08/28 02:48:27;;;;;;;15.90;8.68;;;;;;;;;;5043649;28;20021;-88
2022/08/28 02:50:56;;;;;;;14.40;8.52;;;;;;;;;;5033902;28;20060;-88
2022/08/28 02:53:22;;;;;;;14.43;9.10;;;;;;;;;;5036936;28;20437;-89
2022/08/28 02:55:49;;;;;;;13.80;9.57;;;;;;;;;;5037229;28;20037;-90
2022/08/28 02:58:15;;;;;;;17.40;10.13;;;;;;;;;;5043420;28;20025;-85
2022/08/28 03:00:42;;;;;;;13.35;9.63;;;;;;;;;;5035924;28;20028;-89
2022/08/28 03:03:08;;;;;;;13.55;9.52;;;;;;;;;;5036850;28;20021;-88
2022/08/28 03:05:34;;;;;;;14.13;9.25;;;;;;;;;;5034853;28;20519;-85
2022/08/28 03:08:00;;;;;;;16.08;10.07;;;;;;;;;;5030848;28;20033;-89
2022/08/28 03:10:26;;;;;;;24.00;10.90;;;;;;;;;;5033619;28;20021;-78
2022/08/28 03:12:52;;;;;;;16.38;10.30;;;;;;;;;;5035720;28;20022;-85
2022/08/28 03:15:18;;;;;;;18.60;10.82;;;;;;;;;;5029521;28;20384;-87
2022/08/28 03:17:44;;;;;;;15.73;12.07;;;;;;;;;;5030514;28;20050;-88
2022/08/28 03:20:11;;;;;;;19.95;11.52;;;;;;;;;;5035352;28;20084;-88
2022/08/28 03:25:22;;;;;;;17.90;11.18;;;;;;;;;;5045094;28;20445;-87
2022/08/28 03:27:49;;;;;;;18.67;11.43;;;;;;;;;;5035326;28;20372;-88
2022/08/28 03:30:15;;;;;;;17.45;11.88;;;;;;;;;;5028148;28;20044;-86
2022/08/28 03:32:41;;;;;;;13.95;10.93;;;;;;;;;;5035106;28;20018;-87
2022/08/28 03:35:07;;;;;;;20.42;11.45;;;;;;;;;;5035708;28;20040;-87
2022/08/28 03:37:34;;;;;;;17.15;11.23;;;;;;;;;;5036403;28;20064;-87
2022/08/28 03:40:00;;;;;;;23.55;12.55;;;;;;;;;;5034014;28;20041;-89
2022/08/28 03:42:27;;;;;;;16.33;11.90;;;;;;;;;;5033934;28;20491;-90
2022/08/28 03:44:53;;;;;;;16.27;12.18;;;;;;;;;;5033985;28;20032;-85
2022/08/28 03:47:19;;;;;;;18.52;12.00;;;;;;;;;;5034438;28;20036;-88
2022/08/28 03:49:45;;;;;;;17.20;11.68;;;;;;;;;;5035645;28;20036;-88
2022/08/28 03:52:12;;;;;;;21.50;11.88;;;;;;;;;;5043029;28;20394;-89
2022/08/28 03:54:38;;;;;;;20.10;12.00;;;;;;;;;;5033281;28;20025;-90
2022/08/28 03:57:04;;;;;;;18.73;12.15;;;;;;;;;;5034456;28;20026;-86
2022/08/28 03:59:30;;;;;;;21.10;12.70;;;;;;;;;;5031829;28;20037;-88
2022/08/28 04:01:56;;;;;;;21.67;13.93;;;;;;;;;;5038218;28;20084;-85
2022/08/28 04:04:22;;;;;;;17.63;12.70;;;;;;;;;;5030387;28;20132;-84
2022/08/28 04:06:48;;;;;;;21.52;12.32;;;;;;;;;;5028309;28;20038;-82
2022/08/28 04:09:14;;;;;;;22.40;12.60;;;;;;;;;;5028025;28;20032;-84
2022/08/28 04:11:41;;;;;;;18.60;13.15;;;;;;;;;;5031206;28;20026;-86
2022/08/28 04:14:07;;;;;;;19.55;13.55;;;;;;;;;;5028620;28;20156;-86
2022/08/28 04:16:33;;;;;;;23.30;14.00;;;;;;;;;;5031041;28;20026;-79
2022/08/28 04:18:59;;;;;;;24.42;17.17;;;;;;;;;;5034243;28;20112;-83
2022/08/28 04:21:26;;;;;;;25.58;16.55;;;;;;;;;;5034211;28;20021;-76
2022/08/28 04:23:52;;;;;;;20.52;14.10;;;;;;;;;;5033757;28;20018;-92
2022/08/28 04:26:20;;;;;;;19.52;12.50;;;;;;;;;;5032872;28;20034;-72
2022/08/28 04:28:46;;;;;;;17.33;12.90;;;;;;;;;;5031644;28;20091;-84
2022/08/28 04:31:13;;;;;;;19.15;11.45;;;;;;;;;;5022822;28;20051;-80
2022/08/28 04:33:40;;;;;;;26.13;11.75;;;;;;;;;;5022461;28;20031;-73
2022/08/28 04:36:08;;;;;;;19.88;11.77;;;;;;;;;;5033769;28;20064;-89
2022/08/28 04:38:34;;;;;;;20.13;11.65;;;;;;;;;;5025247;28;20046;-82
2022/08/28 04:41:03;;;;;;;16.13;11.80;;;;;;;;;;5020655;28;20053;-78
2022/08/28 04:43:29;;;;;;;25.98;15.10;;;;;;;;;;5041059;28;20057;-79
2022/08/28 04:45:55;;;;;;;35.03;22.50;;;;;;;;;;5032072;28;20104;-79
2022/08/28 04:48:21;;;;;;;30.80;21.23;;;;;;;;;;5034692;28;20070;-82
2022/08/28 04:50:48;;;;;;;19.35;13.23;;;;;;;;;;5023075;28;20484;-82
2022/08/28 04:53:16;;;;;;;24.60;15.93;;;;;;;;;;5033044;28;20025;-72
2022/08/28 04:55:43;;;;;;;19.45;12.35;;;;;;;;;;5034061;28;20109;-84
2022/08/28 04:58:09;;;;;;;21.60;12.32;;;;;;;;;;5025482;28;20533;-79
2022/08/28 05:00:39;;;;;;;18.15;12.75;;;;;;;;;;5029842;28;20029;-72
2022/08/28 05:03:05;;;;;;;22.40;11.68;;;;;;;;;;5021290;28;20025;-73
2022/08/28 05:05:32;;;;;;;14.48;11.50;;;;;;;;;;5024528;28;20026;-85
2022/08/28 05:08:00;;;;;;;19.25;11.30;;;;;;;;;;5033203;28;20099;-87
2022/08/28 05:10:26;;;;;;;18.42;11.63;;;;;;;;;;5033273;28;20014;-89
2022/08/28 05:12:55;;;;;;;22.60;11.25;;;;;;;;;;5031711;28;20029;-93
2022/08/28 05:15:21;;;;;;;18.13;10.93;;;;;;;;;;5033246;28;20022;-75
2022/08/28 05:17:48;;;;;;;16.85;11.02;;;;;;;;;;5030387;28;20453;-84
2022/08/28 05:20:14;;;;;;;19.15;10.25;;;;;;;;;;5027273;28;20047;-82
2022/08/28 05:22:41;;;;;;;13.95;10.30;;;;;;;;;;5028154;28;20101;-87
2022/08/28 05:25:07;;;;;;;20.30;10.02;;;;;;;;;;5032658;28;20026;-85
2022/08/28 05:27:34;;;;;;;17.95;9.52;;;;;;;;;;5031711;28;20435;-84
2022/08/28 05:30:00;;;;;;;14.95;8.65;;;;;;;;;;5043106;28;20056;-72
2022/08/28 05:32:26;;;;;;;11.45;8.75;;;;;;;;;;5020841;28;20056;-88
2022/08/28 05:34:54;;;;;;;11.80;7.55;;;;;;;;;;5032154;28;20037;-86
2022/08/28 05:37:20;;;;;;;12.85;8.18;;;;;;;;;;5032724;28;20021;-87
2022/08/28 05:39:46;;;;;;;14.60;7.85;;;;;;;;;;5032203;28;20037;-87
2022/08/28 05:42:12;;;;;;;14.23;8.25;;;;;;;;;;5031448;28;20026;-87
2022/08/28 05:44:38;;;;;;;14.80;8.02;;;;;;;;;;5031689;28;20112;-88
2022/08/28 05:47:04;;;;;;;12.85;7.35;;;;;;;;;;5032655;28;20025;-82
2022/08/28 05:49:31;;;;;;;12.60;7.72;;;;;;;;;;5020425;28;20029;-77
2022/08/28 05:51:57;;;;;;;15.00;7.45;;;;;;;;;;5033055;28;20100;-79
2022/08/28 05:54:23;;;;;;;14.55;7.40;;;;;;;;;;5029026;28;20059;-84
2022/08/28 05:56:49;;;;;;;12.73;7.13;;;;;;;;;;5024924;28;20026;-80
2022/08/28 05:59:16;;;;;;;13.95;7.90;;;;;;;;;;5022408;28;20033;-78
2022/08/28 06:01:43;;;;;;;14.10;7.35;;;;;;;;;;5025094;28;20060;-70
2022/08/28 06:04:14;;;;;;;12.55;6.85;;;;;;;;;;5027970;28;20033;-80
2022/08/28 06:06:40;;;;;;;12.60;7.28;;;;;;;;;;5026867;28;20112;-79
2022/08/28 06:09:18;;;;;;;9.27;6.55;;;;;;;;;;5031403;28;20026;-81
2022/08/28 06:11:44;;;;;;;14.20;7.00;;;;;;;;;;5031057;28;20471;-77
2022/08/28 06:14:12;;;;;;;13.90;7.75;;;;;;;;;;5030009;28;20021;-75
2022/08/28 06:16:39;;;;;;;12.15;7.03;;;;;;;;;;5032540;28;20482;-77
2022/08/28 06:19:08;;;;;;;13.18;7.20;;;;;;;;;;5027239;28;20046;-78
2022/08/28 06:21:34;;;;;;;10.70;6.22;;;;;;;;;;5035378;28;20029;-77
2022/08/28 06:24:00;;;;;;;10.90;7.00;;;;;;;;;;5027852;28;20030;-84
2022/08/28 06:26:26;;;;;;;12.90;6.88;;;;;;;;;;5015272;28;20029;-87
2022/08/28 06:28:52;;;;;;;10.73;7.10;;;;;;;;;;5031750;28;20028;-80
2022/08/28 06:31:18;;;;;;;13.23;6.30;;;;;;;;;;5032111;28;20026;-79
2022/08/28 06:33:45;;;;;;;8.45;6.72;;;;;;;;;;5022824;28;20034;-79
2022/08/28 06:36:11;;;;;;;11.35;6.82;;;;;;;;;;5013290;28;20026;-79
2022/08/28 06:38:37;;;;;;;12.32;6.85;;;;;;;;;;5026579;28;20099;-83
2022/08/28 06:41:08;;;;;;;10.45;7.72;;;;;;;;;;5034618;28;20107;-92
2022/08/28 06:43:37;;;;;;;13.68;7.45;;;;;;;;;;5018378;28;20036;-88
2022/08/28 06:46:03;;;;;;;9.77;6.70;;;;;;;;;;5035804;28;20041;-78
2022/08/28 06:48:30;;;;;;;12.90;7.25;;;;;;;;;;5034594;28;20374;-79
2022/08/28 06:50:57;;;;;;;12.30;6.25;;;;;;;;;;5027404;28;20390;-77
2022/08/28 06:53:27;;;;;;;6.95;5.95;;;;;;;;;;5039707;28;20021;-81
2022/08/28 06:55:57;;;;;;;9.02;6.00;;;;;;;;;;5026541;28;20022;-80
2022/08/28 06:58:23;;;;;;;12.45;6.30;;;;;;;;;;5022455;28;20048;-74
2022/08/28 07:00:49;;;;;;;9.70;6.43;;;;;;;;;;5026674;28;20044;-80
2022/08/28 07:03:15;;;;;;;10.32;6.15;;;;;;;;;;5019098;28;20024;-72
2022/08/28 07:05:41;;;;;;;9.63;5.55;;;;;;;;;;5020918;28;20037;-74
2022/08/28 07:08:07;;;;;;;10.77;5.60;;;;;;;;;;5011950;28;20459;-75
2022/08/28 07:10:33;;;;;;;13.77;6.28;;;;;;;;;;5026112;28;20927;-74
2022/08/28 07:13:01;;;;;;;13.95;6.53;;;;;;;;;;5025570;28;20502;-74
2022/08/28 07:15:27;;;;;;;11.77;6.57;;;;;;;;;;5031706;28;20498;-75
2022/08/28 07:17:54;;;;;;;11.60;6.13;;;;;;;;;;5034608;28;20061;-75
2022/08/28 07:20:20;;;;;;;11.52;7.15;;;;;;;;;;5033108;28;20120;-74
2022/08/28 07:22:46;;;;;;;10.70;6.28;;;;;;;;;;5031987;28;20033;-73
2022/08/28 07:25:12;;;;;;;12.32;6.88;;;;;;;;;;5034867;28;20156;-73
2022/08/28 07:27:38;;;;;;;14.48;7.25;;;;;;;;;;5025780;28;20423;-73
2022/08/28 07:30:05;;;;;;;10.75;6.72;;;;;;;;;;5030462;28;20060;-73
2022/08/28 07:32:34;;;;;;;10.30;6.43;;;;;;;;;;5034897;28;20013;-72
2022/08/28 07:35:00;;;;;;;13.55;6.15;;;;;;;;;;5034560;28;20033;-73
2022/08/28 07:37:27;;;;;;;11.02;6.20;;;;;;;;;;5035346;28;20025;-73
2022/08/28 07:39:53;;;;;;;10.38;5.97;;;;;;;;;;5028398;28;20117;-71
2022/08/28 07:45:03;;;;;;;14.07;6.07;;;;;;;;;;5031492;28;20103;-73
2022/08/28 07:47:32;;;;;;;10.55;5.55;;;;;;;;;;5034719;28;20017;-74
2022/08/28 07:50:00;;;;;;;11.52;6.47;;;;;;;;;;5034946;28;20021;-73
2022/08/28 07:52:27;;;;;;;10.05;5.85;;;;;;;;;;5034565;28;20036;-73
2022/08/28 07:54:53;;;;;;;11.98;6.50;;;;;;;;;;5034521;28;20033;-74
2022/08/28 07:57:20;;;;;;;10.88;6.38;;;;;;;;;;5033035;28;20021;-71
2022/08/28 07:59:46;;;;;;;10.50;6.68;;;;;;;;;;5030966;28;20041;-74
2022/08/28 08:02:12;;;;;;;9.15;6.10;;;;;;;;;;5031288;28;20025;-75
2022/08/28 08:04:39;;;;;;;10.80;6.50;;;;;;;;;;5024504;28;20045;-76
2022/08/28 08:07:05;;;;;;;9.55;6.38;;;;;;;;;;5017972;28;20096;-75
2022/08/28 08:09:31;;;;;;;15.80;6.85;;;;;;;;;;5031813;28;20029;-75
2022/08/28 08:11:57;;;;;;;14.05;6.88;;;;;;;;;;5034665;28;20045;-75
2022/08/28 08:14:23;;;;;;;13.35;6.82;;;;;;;;;;5026430;28;20022;-74
2022/08/28 08:16:51;;;;;;;12.80;6.63;;;;;;;;;;5025528;28;20025;-78
2022/08/28 08:19:19;;;;;;;17.10;7.15;;;;;;;;;;5030558;28;20544;-76
2022/08/28 08:21:47;;;;;;;16.92;7.20;;;;;;;;;;5031842;28;20032;-75
2022/08/28 08:24:19;;;;;;;14.65;7.90;;;;;;;;;;5033933;28;20033;-75
2022/08/28 08:26:45;;;;;;;10.80;6.85;;;;;;;;;;5031694;28;20037;-72
2022/08/28 08:29:12;;;;;;;12.02;6.53;;;;;;;;;;5026466;28;20056;-76
2022/08/28 08:31:39;;;;;;;15.55;6.55;;;;;;;;;;5026722;28;20033;-80
2022/08/28 08:34:05;;;;;;;9.13;6.03;;;;;;;;;;5033568;28;20486;-77
2022/08/28 08:36:33;;;;;;;14.63;6.40;;;;;;;;;;5029935;28;20025;-77
2022/08/28 08:38:59;;;;;;;17.67;6.43;;;;;;;;;;5025147;28;20042;-76
2022/08/28 08:41:25;;;;;;;11.10;6.20;;;;;;;;;;5031312;28;20033;-75
2022/08/28 08:43:51;;;;;;;10.23;6.53;;;;;;;;;;5032414;28;20628;-71
2022/08/28 08:46:19;;;;;;;11.63;6.60;;;;;;;;;;5029686;28;20029;-77
2022/08/28 08:48:46;;;;;;;16.98;6.53;;;;;;;;;;5033368;28;20441;-74
2022/08/28 08:51:18;;;;;;;24.02;6.93;;;;;;;;;;5033478;28;20029;-73
2022/08/28 08:53:49;;;;;;;11.55;6.78;;;;;;;;;;5032970;28;20049;-74
2022/08/28 08:56:15;;;;;;;11.52;6.15;;;;;;;;;;5033670;28;20483;-76
2022/08/28 08:58:50;;;;;;;9.68;6.05;;;;;;;;;;5033397;28;20076;-76
2022/08/28 09:01:19;;;;;;;12.48;6.28;;;;;;;;;;5032552;28;20479;-74
2022/08/28 09:03:49;;;;;;;10.18;6.28;;;;;;;;;;5031549;28;20108;-75
2022/08/28 09:06:23;;;;;;;13.57;6.10;;;;;;;;;;5032480;28;20020;-76
2022/08/28 09:08:51;;;;;;;12.82;6.22;;;;;;;;;;5033437;28;20461;-76
2022/08/28 09:11:37;;;;;;;10.27;5.90;;;;;;;;;;5032676;28;20032;-75
2022/08/28 09:14:09;;;;;;;8.98;5.95;;;;;;;;;;5030417;28;20030;-76
2022/08/28 09:16:36;;;;;;;12.25;6.30;;;;;;;;;;5021078;28;20028;-73
2022/08/28 09:19:04;;;;;;;12.07;6.47;;;;;;;;;;5032613;28;20057;-76
2022/08/28 09:21:32;;;;;;;11.25;5.93;;;;;;;;;;5033224;28;20371;-73
2022/08/28 09:24:03;;;;;;;10.13;5.88;;;;;;;;;;5033133;28;20378;-74
2022/08/28 09:26:29;;;;;;;9.60;5.90;;;;;;;;;;5019793;28;20134;-74
2022/08/28 09:29:02;;;;;;;9.38;5.88;;;;;;;;;;5031587;28;20029;-74
2022/08/28 09:31:34;;;;;;;9.48;6.45;;;;;;;;;;5032919;28;20048;-76
2022/08/28 09:34:18;;;;;;;10.70;6.75;;;;;;;;;;5032568;28;20037;-77
2022/08/28 09:36:44;;;;;;;10.50;6.45;;;;;;;;;;5031030;28;20037;-76
2022/08/28 09:39:18;;;;;;;12.98;7.38;;;;;;;;;;5032377;28;20041;-76
2022/08/28 09:44:55;;;;;;;10.38;6.30;;;;;;;;;;5032635;28;20088;-76
2022/08/28 09:47:40;;;;;;;10.30;6.65;;;;;;;;;;5021523;28;20151;-77
2022/08/28 09:50:21;;;;;;;13.13;7.25;;;;;;;;;;5033103;28;20022;-76
2022/08/28 09:52:47;;;;;;;13.20;7.45;;;;;;;;;;5032954;28;20355;-73
2022/08/28 09:55:28;;;;;;;15.63;7.45;;;;;;;;;;5032388;28;20021;-73
2022/08/28 09:57:54;;;;;;;14.13;7.30;;;;;;;;;;5031064;28;20064;-75
2022/08/28 10:00:21;;;;;;;10.68;6.30;;;;;;;;;;5032103;28;20044;-73
2022/08/28 10:02:47;;;;;;;10.10;6.15;;;;;;;;;;5030296;28;20018;-75
2022/08/28 10:05:16;;;;;;;10.77;6.20;;;;;;;;;;5032476;28;20088;-74
2022/08/28 10:07:51;;;;;;;8.13;5.70;;;;;;;;;;5026780;28;20025;-76
2022/08/28 10:10:20;;;;;;;10.38;6.25;;;;;;;;;;5031988;28;20108;-74
2022/08/28 10:13:07;;;;;;;12.88;6.07;;;;;;;;;;5031849;28;20083;-74
2022/08/28 10:15:45;;;;;;;10.13;6.55;;;;;;;;;;4971024;28;20120;-76
2022/08/28 10:18:30;;;;;;;11.52;7.65;;;;;;;;;;4970556;28;20138;-76
2022/08/28 10:20:56;;;;;;;15.68;7.28;;;;;;;;;;4971079;28;20114;-73
2022/08/28 10:23:41;;;;;;;12.68;5.88;;;;;;;;;;4971225;28;20447;-76
2022/08/28 10:26:16;;;;;;;11.80;6.30;;;;;;;;;;4971489;28;20109;-77
2022/08/28 10:28:59;;;;;;;9.65;5.97;;;;;;;;;;4970571;28;20034;-74
2022/08/28 10:31:37;;;;;;;13.18;6.72;;;;;;;;;;4971284;28;20039;-75
2022/08/28 10:34:06;;;;;;;9.30;5.80;;;;;;;;;;4971477;28;20072;-73
2022/08/28 10:36:34;;;;;;;12.25;6.28;;;;;;;;;;4970425;28;20057;-73
2022/08/28 10:39:09;;;;;;;10.95;6.10;;;;;;;;;;4971019;28;20039;-75
2022/08/28 10:41:45;;;;;;;10.23;6.30;;;;;;;;;;4971447;28;20118;-73
2022/08/28 10:44:16;;;;;;;8.68;5.57;;;;;;;;;;4970414;28;20050;-76
2022/08/28 10:46:44;;;;;;;10.93;6.32;;;;;;;;;;4970743;28;20097;-75
2022/08/28 10:49:14;;;;;;;11.70;6.00;;;;;;;;;;4970317;28;20065;-84
2022/08/28 10:51:46;;;;;;;8.70;6.38;;;;;;;;;;4975849;28;20031;-76
2022/08/28 10:54:12;;;;;;;13.07;5.72;;;;;;;;;;5033995;28;20055;-76
2022/08/28 10:56:49;;;;;;;9.10;6.45;;;;;;;;;;5035548;28;20013;-77
2022/08/28 10:59:15;;;;;;;13.02;6.60;;;;;;;;;;5035443;28;20120;-77
2022/08/28 11:01:42;;;;;;;9.50;6.50;;;;;;;;;;5028824;28;20029;-74
2022/08/28 11:04:15;;;;;;;10.88;6.30;;;;;;;;;;5033660;28;20030;-74
2022/08/28 11:06:59;;;;;;;10.13;6.45;;;;;;;;;;5033423;28;20032;-75
2022/08/28 11:09:36;;;;;;;14.25;6.18;;;;;;;;;;5032516;28;20040;-77
2022/08/28 11:12:28;;;;;;;10.50;6.18;;;;;;;;;;5035580;28;20034;-77
2022/08/28 11:14:54;;;;;;;23.48;7.95;;;;;;;;;;5021801;28;20025;-71
2022/08/28 11:17:29;;;;;;;52.42;9.77;;;;;;;;;;5035110;28;20038;-77
2022/08/28 11:20:04;;;;;;;58.35;9.93;;;;;;;;;;5034896;28;20116;-76
2022/08/28 11:22:38;;;;;;;16.23;7.38;;;;;;;;;;5034640;28;20103;-77
2022/08/28 11:25:13;;;;;;;18.50;8.27;;;;;;;;;;5034524;28;20043;-73
2022/08/28 11:27:59;;;;;;;15.15;6.72;;;;;;;;;;5035050;28;20058;-78
2022/08/28 11:30:28;;;;;;;17.42;6.55;;;;;;;;;;5024787;28;20113;-81
2022/08/28 11:32:56;;;;;;;10.95;6.60;;;;;;;;;;5024633;28;20032;-80
2022/08/28 11:35:40;;;;;;;16.63;6.72;;;;;;;;;;5023847;28;20101;-81
2022/08/28 11:38:06;;;;;;;11.90;6.20;;;;;;;;;;5024968;28;20029;-83
2022/08/28 11:40:32;;;;;;;14.18;6.40;;;;;;;;;;5024456;28;20079;-81
2022/08/28 11:43:13;;;;;;;10.15;6.10;;;;;;;;;;5024441;28;20064;-82
2022/08/28 11:45:44;;;;;;;12.07;6.68;;;;;;;;;;5032424;28;20026;-75
2022/08/28 11:48:22;;;;;;;13.38;7.20;;;;;;;;;;5025400;28;20021;-85
2022/08/28 11:50:54;;;;;;;15.95;6.70;;;;;;;;;;5022491;28;20040;-86
2022/08/28 11:53:29;;;;;;;16.45;7.43;;;;;;;;;;5030745;28;20025;-82
2022/08/28 11:55:58;;;;;;;10.10;7.22;;;;;;;;;;5031651;28;22663;-81
2022/08/28 11:58:43;;;;;;;10.25;7.20;;;;;;;;;;5031010;28;20041;-77
2022/08/28 12:01:11;;;;;;;19.05;7.70;;;;;;;;;;5033621;28;20487;-82
2022/08/28 12:03:40;;;;;;;16.20;7.13;;;;;;;;;;5028514;28;20021;-76
2022/08/28 12:06:07;;;;;;;14.23;7.15;;;;;;;;;;5041191;28;20087;-79
2022/08/28 12:08:49;;;;;;;16.13;7.85;;;;;;;;;;5034407;28;20022;-82
2022/08/28 12:11:34;;;;;;;12.63;8.02;;;;;;;;;;5031844;28;20063;-80
2022/08/28 12:14:00;;;;;;;17.63;8.15;;;;;;;;;;5022268;28;20026;-75
2022/08/28 12:16:26;;;;;;;15.35;8.15;;;;;;;;;;5034372;28;20041;-81
2022/08/28 12:18:52;;;;;;;16.63;8.90;;;;;;;;;;5029552;28;20099;-73
2022/08/28 12:21:24;;;;;;;15.77;7.35;;;;;;;;;;5030979;28;20032;-81
2022/08/28 12:23:58;;;;;;;12.45;7.63;;;;;;;;;;5032133;28;20060;-82
2022/08/28 12:26:24;;;;;;;10.73;7.18;;;;;;;;;;5032360;28;20044;-82
2022/08/28 12:28:59;;;;;;;14.70;8.43;;;;;;;;;;5033296;28;20064;-78
2022/08/28 12:34:20;;;;;;;11.30;7.47;;;;;;;;;;5033105;28;20550;-80
2022/08/28 12:36:46;;;;;;;14.50;8.00;;;;;;;;;;5030393;28;20025;-80
2022/08/28 12:39:17;;;;;;;15.55;7.47;;;;;;;;;;5032780;28;20049;-81
2022/08/28 12:41:44;;;;;;;13.75;7.28;;;;;;;;;;5034259;28;20029;-74
2022/08/28 12:44:11;;;;;;;14.10;6.90;;;;;;;;;;5034189;28;20038;-82
2022/08/28 12:46:41;;;;;;;13.55;7.57;;;;;;;;;;5027872;28;20045;-82
2022/08/28 12:49:26;;;;;;;10.07;7.40;;;;;;;;;;5029405;28;20108;-82
2022/08/28 12:52:06;;;;;;;11.40;7.30;;;;;;;;;;5033535;28;20021;-82
2022/08/28 12:54:32;;;;;;;12.82;7.82;;;;;;;;;;5025541;28;20103;-81
2022/08/28 12:56:58;;;;;;;12.93;7.40;;;;;;;;;;5033307;28;20044;-80
2022/08/28 12:59:36;;;;;;;14.50;7.50;;;;;;;;;;5033331;28;20503;-82
2022/08/28 13:02:26;;;;;;;11.23;7.75;;;;;;;;;;5030401;28;20029;-82
2022/08/28 13:04:55;;;;;;;13.32;7.97;;;;;;;;;;5022311;28;20033;-76
2022/08/28 13:07:44;;;;;;;13.05;8.20;;;;;;;;;;5015088;28;20026;-82
2022/08/28 13:10:21;;;;;;;17.42;7.93;;;;;;;;;;4970926;28;20035;-78
2022/08/28 13:12:52;;;;;;;13.82;8.10;;;;;;;;;;4970891;28;20086;-77
2022/08/28 13:15:37;;;;;;;12.45;8.43;;;;;;;;;;4970266;28;20057;-82
2022/08/28 13:18:03;;;;;;;15.95;8.57;;;;;;;;;;4968795;28;20062;-76
2022/08/28 13:20:31;;;;;;;11.65;8.50;;;;;;;;;;4970676;28;20579;-77
2022/08/28 13:22:57;;;;;;;15.32;9.20;;;;;;;;;;4970426;28;20034;-81
2022/08/28 13:25:25;;;;;;;12.85;7.90;;;;;;;;;;4969884;28;20031;-80
2022/08/28 13:28:20;;;;;;;16.58;8.70;;;;;;;;;;4971694;28;20034;-81
2022/08/28 13:30:56;;;;;;;13.15;8.20;;;;;;;;;;4914474;29;20092;-74
2022/08/28 13:33:23;;;;;;;10.90;7.70;;;;;;;;;;4914076;29;20047;-81
2022/08/28 13:35:51;;;;;;;13.13;7.93;;;;;;;;;;4914305;29;20842;-72
2022/08/28 13:38:18;;;;;;;11.77;7.78;;;;;;;;;;4915199;29;20071;-72
2022/08/28 13:40:50;;;;;;;9.98;7.68;;;;;;;;;;4919046;29;20040;-82
2022/08/28 13:43:16;;;;;;;10.23;6.95;;;;;;;;;;4914123;29;20028;-80
2022/08/28 13:45:43;;;;;;;9.70;7.22;;;;;;;;;;4914178;29;20483;-81
2022/08/28 13:48:13;;;;;;;12.65;7.25;;;;;;;;;;4961304;28;20122;-83
2022/08/28 13:50:40;;;;;;;14.02;7.28;;;;;;;;;;4948386;28;20023;-81
2022/08/28 13:53:06;;;;;;;11.85;7.57;;;;;;;;;;4971321;28;20101;-73
2022/08/28 13:55:33;;;;;;;11.80;7.85;;;;;;;;;;4958071;28;20031;-81
2022/08/28 13:57:59;;;;;;;15.48;7.18;;;;;;;;;;4951892;28;20524;-83
2022/08/28 14:00:25;;;;;;;13.70;7.88;;;;;;;;;;4952949;28;20543;-81
2022/08/28 14:05:35;;;;;;;12.10;7.65;;;;;;;;;;4960304;28;20104;-73
2022/08/28 14:08:02;;;;;;;13.77;7.65;;;;;;;;;;5022369;28;20037;-73
2022/08/28 14:10:28;;;;;;;13.60;8.63;;;;;;;;;;5032200;28;20522;-81
2022/08/28 14:12:54;;;;;;;14.38;8.35;;;;;;;;;;5032497;28;20021;-82
2022/08/28 14:15:20;;;;;;;10.82;8.13;;;;;;;;;;5032780;28;20013;-81
2022/08/28 14:17:46;;;;;;;15.38;8.30;;;;;;;;;;5026927;28;20050;-79
2022/08/28 14:20:13;;;;;;;12.23;7.60;;;;;;;;;;5035144;28;20104;-82
2022/08/28 14:22:40;;;;;;;14.25;8.40;;;;;;;;;;5028536;28;20098;-75
2022/08/28 14:25:08;;;;;;;14.35;7.90;;;;;;;;;;5029473;28;20103;-79
2022/08/28 14:27:34;;;;;;;12.55;7.70;;;;;;;;;;5035982;28;20110;-82
2022/08/28 14:30:00;;;;;;;14.00;8.18;;;;;;;;;;5040263;28;20040;-82
2022/08/28 14:32:27;;;;;;;14.07;8.68;;;;;;;;;;5036153;28;20022;-81
2022/08/28 14:34:53;;;;;;;12.57;8.00;;;;;;;;;;5030954;28;20030;-72
2022/08/28 14:37:20;;;;;;;10.63;7.60;;;;;;;;;;5034942;28;20471;-73
2022/08/28 14:39:47;;;;;;;15.25;8.40;;;;;;;;;;5026501;28;20034;-73
2022/08/28 14:42:13;;;;;;;13.15;7.53;;;;;;;;;;5033507;28;20052;-82
2022/08/28 14:44:39;;;;;;;9.35;7.20;;;;;;;;;;5031261;28;20041;-72
2022/08/28 14:47:05;;;;;;;13.40;7.63;;;;;;;;;;5017724;28;20053;-82
2022/08/28 14:49:31;;;;;;;13.15;7.78;;;;;;;;;;5018764;28;20109;-77
2022/08/28 14:51:57;;;;;;;19.70;7.88;;;;;;;;;;5031825;28;20037;-79
2022/08/28 14:54:25;;;;;;;14.55;7.85;;;;;;;;;;5028373;28;20055;-75